Time;durP1;ratioP1;P1;durP2;ratioP2;P2;SDS_P1;SDS_P2;PMS_P1;PMS_P2;Temp;Humidity;BMP_temperature;BMP_pressure;BME280_temperature;BME280_humidity;BME280_pressure;Samples;Min_cycle;Max_cycle;Signal;HPM_P1;HPM_P2
2023/03/02 00:02:11;;;;;;;39.55;19.60;;;;;;;5.25;62.67;102703.28;5019527;28;20136;-39
2023/03/02 00:04:41;;;;;;;;;;;;;;;5.33;63.43;102704.66;5016446;28;20606;-40
2023/03/02 00:07:09;;;;;;;42.70;20.42;;;;;;;5.30;63.84;102697.63;5015763;28;20007;-39
2023/03/02 00:09:37;;;;;;;43.78;21.02;;;;;;;5.00;65.82;102693.06;5007849;28;20520;-41
2023/03/02 00:12:03;;;;;;;49.28;22.85;;;;;;;5.19;65.34;102692.53;5015180;28;20084;-39
2023/03/02 00:14:29;;;;;;;46.70;22.13;;;;;;;5.30;64.93;102696.75;5023312;28;20045;-38
2023/03/02 00:16:54;;;;;;;49.95;23.83;;;;;;;5.42;65.23;102700.09;5020232;28;20117;-41
2023/03/02 00:19:20;;;;;;;49.08;23.50;;;;;;;5.53;64.84;102699.06;5016317;28;20191;-42
2023/03/02 00:21:45;;;;;;;46.53;22.63;;;;;;;5.49;64.02;102691.03;5023566;28;20061;-42
2023/03/02 00:24:11;;;;;;;48.80;24.00;;;;;;;5.30;65.05;102689.88;5021481;28;20034;-40
2023/03/02 00:26:36;;;;;;;51.53;24.67;;;;;;;5.27;66.50;102688.75;5023582;28;20048;-40
2023/03/02 00:29:02;;;;;;;53.53;24.95;;;;;;;5.22;66.89;102685.91;5020310;28;20611;-40
2023/03/02 00:31:28;;;;;;;49.95;25.20;;;;;;;5.24;68.13;102686.91;5021096;28;20103;-39
2023/03/02 00:33:53;;;;;;;51.38;23.83;;;;;;;5.49;66.70;102686.72;5020264;28;20037;-40
2023/03/02 00:36:20;;;;;;;53.72;24.52;;;;;;;5.48;66.46;102689.25;5016858;28;20523;-41
2023/03/02 00:38:46;;;;;;;51.35;24.40;;;;;;;5.41;66.47;102685.38;5023076;28;20041;-38
2023/03/02 00:41:13;;;;;;;55.40;26.08;;;;;;;5.21;67.73;102683.22;5019274;28;20037;-40
2023/03/02 00:43:39;;;;;;;49.10;24.55;;;;;;;5.38;67.23;102680.00;5022941;28;20040;-42
2023/03/02 00:46:10;;;;;;;52.33;25.02;;;;;;;5.29;67.96;102680.31;5018991;28;20033;-40
2023/03/02 00:48:36;;;;;;;56.58;25.38;;;;;;;5.39;67.58;102675.72;5022916;28;20085;-41
2023/03/02 00:51:01;;;;;;;54.40;25.33;;;;;;;5.30;67.92;102671.78;5018733;28;20511;-41
2023/03/02 00:53:26;;;;;;;50.67;23.67;;;;;;;5.39;67.14;102675.72;5022694;28;20488;-40
2023/03/02 00:55:53;;;;;;;53.47;25.38;;;;;;;5.10;68.97;102674.78;5005135;28;20048;-40
2023/03/02 00:58:20;;;;;;;52.25;24.73;;;;;;;5.55;66.84;102679.34;5021696;28;20573;-40
2023/03/02 01:00:45;;;;;;;53.55;24.95;;;;;;;5.22;67.88;102678.13;5025519;28;20038;-40
2023/03/02 01:03:10;;;;;;;56.13;26.08;;;;;;;5.04;68.91;102666.63;5022706;28;20084;-41
2023/03/02 01:05:36;;;;;;;54.65;25.38;;;;;;;5.10;68.97;102673.88;5023020;28;20059;-41
2023/03/02 01:08:02;;;;;;;49.33;23.55;;;;;;;5.23;68.23;102673.88;5019091;28;20037;-42
2023/03/02 01:10:27;;;;;;;50.92;22.98;;;;;;;5.22;68.51;102672.97;5022329;28;20222;-39
2023/03/02 01:12:53;;;;;;;50.55;22.77;;;;;;;5.45;67.58;102670.91;5021674;28;20037;-42
2023/03/02 01:15:18;;;;;;;55.10;24.88;;;;;;;5.09;69.07;102675.56;5018594;28;20426;-42
2023/03/02 01:17:45;;;;;;;55.58;24.73;;;;;;;4.89;70.52;102668.22;5021534;28;20040;-40
2023/03/02 01:20:11;;;;;;;54.92;25.15;;;;;;;4.73;70.41;102679.25;5018771;28;20025;-40
2023/03/02 01:22:37;;;;;;;54.05;24.17;;;;;;;5.25;69.13;102683.50;5003932;28;20116;-39
2023/03/02 01:25:03;;;;;;;59.55;25.48;;;;;;;5.15;69.02;102688.88;5018755;28;20117;-42
2023/03/02 01:27:28;;;;;;;56.90;24.85;;;;;;;4.77;69.65;102686.41;5022267;28;20029;-42
2023/03/02 01:29:54;;;;;;;60.22;25.67;;;;;;;4.82;69.74;102681.53;5025250;28;20083;-40
2023/03/02 01:32:19;;;;;;;53.10;24.20;;;;;;;4.97;69.79;102685.13;5021490;28;20092;-40
2023/03/02 01:34:44;;;;;;;58.13;24.67;;;;;;;4.61;70.57;102682.72;5024581;28;20048;-42
2023/03/02 01:37:10;;;;;;;53.20;23.83;;;;;;;4.62;70.41;102675.06;5018878;28;20550;-40
2023/03/02 01:39:35;;;;;;;60.13;25.33;;;;;;;4.93;70.10;102679.66;5021779;28;20040;-42
2023/03/02 01:42:00;;;;;;;54.95;24.13;;;;;;;4.86;69.53;102670.63;5018067;28;20029;-41
2023/03/02 01:44:42;;;;;;;57.33;25.40;;;;;;;4.67;70.43;102673.69;5021704;28;20041;-41
2023/03/02 01:47:24;;;;;;;56.45;24.10;;;;;;;4.67;70.70;102671.09;5017256;28;20091;-40
2023/03/02 01:49:57;;;;;;;56.88;24.17;;;;;;;4.66;69.94;102668.41;5021738;28;20037;-41
2023/03/02 01:52:24;;;;;;;59.55;23.50;;;;;;;4.74;69.15;102672.41;5017943;28;20036;-40
2023/03/02 01:54:53;;;;;;;51.50;23.27;;;;;;;4.93;68.79;102665.06;5021561;28;20029;-40
2023/03/02 01:57:25;;;;;;;51.17;22.55;;;;;;;4.90;68.34;102664.84;5017795;28;20067;-40
2023/03/02 01:59:55;;;;;;;53.97;22.75;;;;;;;4.72;68.32;102666.22;5021573;28;20056;-41
2023/03/02 02:02:20;;;;;;;54.45;22.73;;;;;;;4.43;68.92;102670.38;5017593;28;20083;-41
2023/03/02 02:04:47;;;;;;;61.28;23.67;;;;;;;4.13;71.38;102663.16;5021473;28;20144;-41
2023/03/02 02:07:13;;;;;;;59.15;23.20;;;;;;;3.98;72.07;102665.59;5018068;28;20036;-38
2023/03/02 02:09:43;;;;;;;60.13;23.73;;;;;;;4.37;70.20;102663.91;5021082;28;20041;-42
2023/03/02 02:12:14;;;;;;;54.25;22.45;;;;;;;4.41;70.01;102659.03;5017191;28;20132;-39
2023/03/02 02:14:40;;;;;;;62.67;23.52;;;;;;;4.31;70.19;102653.16;5021913;28;20030;-39
2023/03/02 02:17:05;;;;;;;56.97;22.13;;;;;;;4.44;70.26;102655.78;5017705;28;20052;-39
2023/03/02 02:19:54;;;;;;;57.58;22.75;;;;;;;4.32;70.42;102658.44;5020947;28;20053;-40
2023/03/02 02:22:36;;;;;;;60.55;22.67;;;;;;;4.40;70.79;102657.25;5016861;28;20064;-40
2023/03/02 02:25:10;;;;;;;60.17;22.23;;;;;;;4.33;70.31;102647.28;5017109;28;20064;-40
2023/03/02 02:27:36;;;;;;;61.00;22.95;;;;;;;4.48;69.75;102648.34;5020962;28;20026;-40
2023/03/02 02:30:05;;;;;;;62.28;22.98;;;;;;;4.59;69.68;102645.53;5016705;28;20046;-38
2023/03/02 02:32:35;;;;;;;60.65;22.17;;;;;;;4.62;69.40;102641.50;5020973;28;20026;-40
2023/03/02 02:35:06;;;;;;;58.92;22.73;;;;;;;4.49;69.27;102637.22;5016762;28;20091;-42
2023/03/02 02:37:51;;;;;;;60.15;23.85;;;;;;;4.38;70.85;102635.63;5020813;28;20040;-41
2023/03/02 02:40:35;;;;;;;;;;;;;;;4.37;70.89;102635.50;5000026;28;20033;-41
2023/03/02 02:43:00;;;;;;;62.10;22.20;;;;;;;3.94;72.88;102642.94;5017347;28;19920;-42
2023/03/02 02:45:26;;;;;;;68.63;24.20;;;;;;;3.91;73.52;102631.50;5021005;28;20395;-40
2023/03/02 02:47:53;;;;;;;63.20;23.13;;;;;;;4.37;72.25;102628.66;5026302;28;20037;-41
2023/03/02 02:50:23;;;;;;;58.42;22.63;;;;;;;4.48;70.56;102632.84;5023228;28;26064;-39
2023/03/02 02:52:54;;;;;;;60.63;22.25;;;;;;;4.46;71.39;102630.94;5027441;28;20030;-39
2023/03/02 02:55:22;;;;;;;62.20;23.63;;;;;;;4.27;71.13;102630.53;5024208;28;20033;-39
2023/03/02 02:57:50;;;;;;;66.25;24.13;;;;;;;4.09;71.76;102636.22;5010428;28;20123;-39
2023/03/02 03:00:20;;;;;;;61.72;23.27;;;;;;;4.37;70.79;102628.66;5017867;28;20029;-40
2023/03/02 03:03:02;;;;;;;66.78;22.77;;;;;;;4.25;71.46;102629.53;5020583;28;20112;-41
2023/03/02 03:05:27;;;;;;;59.30;22.60;;;;;;;4.33;70.22;102626.63;5017048;28;20038;-40
2023/03/02 03:08:08;;;;;;;59.90;22.85;;;;;;;4.41;70.88;102630.63;5020764;28;20080;-41
2023/03/02 03:10:38;;;;;;;63.88;22.98;;;;;;;4.30;70.56;102631.63;5017325;28;20055;-40
2023/03/02 03:13:07;;;;;;;61.13;22.90;;;;;;;4.27;70.25;102630.53;5017518;28;20057;-39
2023/03/02 03:15:32;;;;;;;63.92;23.40;;;;;;;4.20;70.62;102626.66;5004714;28;20048;-40
2023/03/02 03:17:58;;;;;;;59.00;23.00;;;;;;;4.00;70.89;102627.88;5026537;28;20037;-40
2023/03/02 03:20:26;;;;;;;63.15;23.33;;;;;;;4.11;70.91;102626.00;5025615;28;20042;-40
2023/03/02 03:22:54;;;;;;;61.03;23.13;;;;;;;3.91;72.55;102624.66;5028621;28;20033;-40
2023/03/02 03:25:24;;;;;;;62.85;22.92;;;;;;;4.23;71.17;102619.09;5021909;28;20036;-40
2023/03/02 03:27:49;;;;;;;64.57;22.70;;;;;;;4.19;70.94;102621.38;5020261;28;20041;-40
2023/03/02 03:30:15;;;;;;;60.38;23.05;;;;;;;3.99;71.72;102620.94;5016654;28;20037;-41
2023/03/02 03:32:40;;;;;;;58.15;21.15;;;;;;;4.24;70.47;102620.00;5020188;28;20499;-40
2023/03/02 03:35:09;;;;;;;66.60;23.30;;;;;;;4.18;70.72;102614.41;5016268;28;20043;-40
2023/03/02 03:37:35;;;;;;;61.13;22.58;;;;;;;4.20;70.71;102620.59;5019731;28;20048;-40
2023/03/02 03:40:01;;;;;;;61.00;22.20;;;;;;;4.09;71.10;102617.25;5016300;28;20034;-40
2023/03/02 03:42:26;;;;;;;61.42;22.33;;;;;;;4.03;71.57;102619.44;5020091;28;20055;-40
2023/03/02 03:44:51;;;;;;;69.55;23.42;;;;;;;3.75;72.62;102611.53;5020025;28;20179;-40
2023/03/02 03:47:17;;;;;;;67.53;22.98;;;;;;;3.89;72.65;102613.38;5015875;28;20527;-41
2023/03/02 03:49:42;;;;;;;69.47;23.25;;;;;;;4.13;71.19;102606.38;5020643;28;20403;-40
2023/03/02 03:52:08;;;;;;;65.63;22.77;;;;;;;4.14;70.81;102610.75;5015684;28;20034;-41
2023/03/02 03:54:33;;;;;;;59.55;21.58;;;;;;;4.27;70.35;102613.31;5019393;28;20041;-40
2023/03/02 03:56:59;;;;;;;59.63;22.05;;;;;;;4.40;70.04;102615.03;5015992;28;20064;-40
2023/03/02 03:59:25;;;;;;;59.47;21.35;;;;;;;4.37;69.54;102614.84;5019675;28;20044;-40
2023/03/02 04:01:55;;;;;;;60.88;21.40;;;;;;;4.16;71.00;102618.56;5019989;28;20117;-40
2023/03/02 04:04:26;;;;;;;63.20;21.75;;;;;;;3.66;72.96;102616.94;5018632;28;20034;-40
2023/03/02 04:06:52;;;;;;;60.97;22.55;;;;;;;4.05;71.55;102623.91;5022061;28;20045;-39
2023/03/02 04:09:18;;;;;;;62.28;21.80;;;;;;;4.26;71.15;102615.84;5023531;28;20533;-40
2023/03/02 04:11:46;;;;;;;61.15;21.95;;;;;;;4.04;71.88;102613.50;5029365;28;20046;-44
2023/03/02 04:14:12;;;;;;;62.25;22.20;;;;;;;4.02;72.38;102623.72;5024391;28;20164;-39
2023/03/02 04:16:38;;;;;;;60.25;21.40;;;;;;;4.13;71.42;102624.44;5030455;28;20085;-40
2023/03/02 04:19:08;;;;;;;59.97;21.67;;;;;;;4.12;71.54;102611.44;5022190;28;21468;-40
2023/03/02 04:21:38;;;;;;;58.17;21.17;;;;;;;4.05;71.70;102623.91;5023421;28;20523;-39
2023/03/02 04:24:04;;;;;;;61.95;22.60;;;;;;;4.05;72.42;102620.44;5019458;28;20372;-38
2023/03/02 04:26:30;;;;;;;64.40;22.38;;;;;;;3.93;70.87;102627.34;5023088;28;20036;-40
2023/03/02 04:28:55;;;;;;;63.45;22.50;;;;;;;4.18;71.35;102628.22;5023255;28;20033;-39
2023/03/02 04:31:20;;;;;;;61.10;21.90;;;;;;;4.17;71.08;102625.53;5019607;28;20033;-40
2023/03/02 04:33:46;;;;;;;62.95;21.85;;;;;;;4.05;71.30;102625.59;5024177;28;20515;-40
2023/03/02 04:36:11;;;;;;;58.92;21.70;;;;;;;3.95;71.42;102628.38;5026412;28;20447;-40
2023/03/02 04:38:36;;;;;;;60.60;21.52;;;;;;;3.91;72.11;102621.19;5030894;28;20119;-40
2023/03/02 04:41:02;;;;;;;66.88;21.75;;;;;;;3.88;72.57;102626.16;5027050;28;20124;-39
2023/03/02 04:43:27;;;;;;;60.42;21.08;;;;;;;4.25;71.42;102622.69;5029454;28;20037;-40
2023/03/02 04:45:53;;;;;;;59.05;21.00;;;;;;;4.30;71.54;102621.28;5028300;28;20037;-41
2023/03/02 04:48:19;;;;;;;58.88;21.35;;;;;;;4.18;71.18;102620.47;5024362;28;20048;-40
2023/03/02 04:50:44;;;;;;;59.13;21.65;;;;;;;4.05;72.17;102620.44;5028155;28;20166;-43
2023/03/02 04:53:10;;;;;;;57.15;20.05;;;;;;;4.25;70.48;102614.94;5026877;28;20471;-39
2023/03/02 04:55:36;;;;;;;58.53;20.55;;;;;;;4.27;71.00;102615.03;5025213;28;20037;-41
2023/03/02 04:58:02;;;;;;;59.72;21.20;;;;;;;4.06;71.36;102612.81;5022981;28;20128;-39
2023/03/02 05:00:27;;;;;;;58.28;21.10;;;;;;;4.05;71.94;102610.13;5001146;28;20176;-40
2023/03/02 05:02:54;;;;;;;61.35;22.02;;;;;;;4.03;72.36;102619.44;5022903;28;20037;-40
2023/03/02 05:05:22;;;;;;;59.17;21.02;;;;;;;4.25;70.63;102609.78;5019641;28;20045;-38
2023/03/02 05:07:48;;;;;;;57.20;21.10;;;;;;;4.08;72.07;102618.09;5022439;28;20041;-40
2023/03/02 05:10:15;;;;;;;54.42;19.83;;;;;;;4.29;71.86;102614.34;5018587;28;20041;-40
2023/03/02 05:15:32;;;;;;;53.55;20.08;;;;;;;4.49;69.29;102613.97;5019948;28;20120;-40
2023/03/02 05:17:58;;;;;;;51.80;19.40;;;;;;;4.33;69.55;102607.72;5022333;28;20068;-40
2023/03/02 05:20:26;;;;;;;53.70;19.50;;;;;;;4.13;70.47;102614.13;5019021;28;20044;-39
2023/03/02 05:22:56;;;;;;;50.97;19.35;;;;;;;3.88;70.94;102611.56;5021044;28;20121;-40
2023/03/02 05:25:23;;;;;;;53.53;20.10;;;;;;;4.11;69.79;102607.94;5019537;28;20037;-40
2023/03/02 05:27:48;;;;;;;49.47;19.08;;;;;;;4.15;70.02;102604.75;5022074;28;20095;-39
2023/03/02 05:30:14;;;;;;;48.35;18.75;;;;;;;4.10;70.58;102601.00;5001010;28;20041;-41
2023/03/02 05:32:39;;;;;;;50.58;18.67;;;;;;;4.08;70.59;102606.06;5022448;28;20045;-41
2023/03/02 05:35:05;;;;;;;50.83;18.92;;;;;;;4.24;69.36;102607.09;5018406;28;20112;-42
2023/03/02 05:37:31;;;;;;;48.13;19.60;;;;;;;4.04;69.70;102606.63;5022066;28;20067;-39
2023/03/02 05:39:56;;;;;;;49.10;18.60;;;;;;;4.04;69.85;102603.16;5021656;28;20501;-42
2023/03/02 05:42:22;;;;;;;49.97;19.02;;;;;;;3.94;69.92;102609.41;5017879;28;20053;-40
2023/03/02 05:44:47;;;;;;;46.03;18.70;;;;;;;3.76;70.47;102609.84;5021884;28;20739;-41
2023/03/02 05:47:12;;;;;;;47.67;18.45;;;;;;;3.93;70.58;102614.44;5018425;28;20064;-41
2023/03/02 05:49:38;;;;;;;49.25;18.55;;;;;;;3.92;69.75;102613.56;5021460;28;21205;-40
2023/03/02 05:52:03;;;;;;;52.30;18.52;;;;;;;3.88;70.79;102609.00;5020217;28;20092;-39
2023/03/02 05:54:29;;;;;;;46.58;18.52;;;;;;;3.99;70.43;102605.44;5026035;28;20449;-40
2023/03/02 05:56:54;;;;;;;48.20;18.60;;;;;;;3.49;71.25;102608.81;5025811;28;20073;-40
2023/03/02 05:59:19;;;;;;;49.30;18.80;;;;;;;3.75;71.59;102610.63;5018094;28;20071;-39
2023/03/02 06:01:44;;;;;;;53.75;18.52;;;;;;;3.58;72.89;102612.94;5021429;28;20029;-40
2023/03/02 06:04:10;;;;;;;51.83;19.95;;;;;;;3.81;71.58;102611.94;5017716;28;20403;-40
2023/03/02 06:06:35;;;;;;;49.05;18.73;;;;;;;3.62;71.39;102616.63;5021599;28;20108;-38
2023/03/02 06:09:00;;;;;;;49.55;18.95;;;;;;;3.80;71.14;102614.41;5000093;28;20068;-40
2023/03/02 06:11:26;;;;;;;49.72;19.63;;;;;;;3.92;70.87;102620.41;5018841;28;20030;-39
2023/03/02 06:13:51;;;;;;;47.22;18.88;;;;;;;3.95;69.72;102625.78;5021878;28;20084;-41
2023/03/02 06:16:16;;;;;;;50.42;18.63;;;;;;;3.79;70.69;102620.34;5018143;28;20450;-39
2023/03/02 06:18:42;;;;;;;51.95;19.85;;;;;;;3.65;71.18;102625.50;5022230;28;20045;-39
2023/03/02 06:21:08;;;;;;;54.67;19.70;;;;;;;3.66;72.34;102637.56;5017242;28;20037;-40
2023/03/02 06:23:34;;;;;;;53.60;19.85;;;;;;;3.75;71.67;102637.31;5021191;28;20029;-42
2023/03/02 06:25:59;;;;;;;54.05;19.02;;;;;;;3.76;71.98;102631.38;5021273;28;20389;-40
2023/03/02 06:28:25;;;;;;;53.10;19.38;;;;;;;3.88;71.80;102636.47;5016925;28;20037;-41
2023/03/02 06:30:51;;;;;;;53.08;20.30;;;;;;;3.96;71.34;102637.91;5021375;28;20407;-40
2023/03/02 06:33:19;;;;;;;51.65;19.88;;;;;;;3.69;72.23;102642.06;5017212;28;20032;-40
2023/03/02 06:35:45;;;;;;;51.40;18.42;;;;;;;3.88;71.74;102639.06;5020912;28;20046;-40
2023/03/02 06:38:11;;;;;;;53.10;19.10;;;;;;;3.97;72.36;102642.25;5019012;28;20038;-39
2023/03/02 06:40:36;;;;;;;53.67;20.17;;;;;;;3.98;72.64;102644.03;5021943;28;20045;-39
2023/03/02 06:43:02;;;;;;;50.67;18.80;;;;;;;4.08;71.70;102639.63;5018022;28;20052;-39
2023/03/02 06:45:28;;;;;;;54.08;19.98;;;;;;;4.04;71.67;102644.44;5020944;28;20068;-39
2023/03/02 06:47:53;;;;;;;52.78;19.80;;;;;;;4.09;71.18;102649.13;5021275;28;20407;-39
2023/03/02 06:50:19;;;;;;;48.45;19.02;;;;;;;4.27;70.29;102639.16;5017413;28;20151;-40
2023/03/02 06:52:44;;;;;;;47.10;19.17;;;;;;;4.19;70.70;102636.88;5021519;28;20041;-45
2023/03/02 06:55:10;;;;;;;48.55;19.52;;;;;;;3.93;71.62;102638.56;5017368;28;20033;-39
2023/03/02 06:57:35;;;;;;;50.47;18.85;;;;;;;4.40;72.67;102639.16;5020655;28;20029;-40
2023/03/02 07:00:14;;;;;;;50.20;18.77;;;;;;;4.60;71.71;102642.19;5017461;28;20535;-40
2023/03/02 07:02:39;;;;;;;46.33;18.30;;;;;;;5.07;71.65;102647.81;5021606;28;20120;-42
2023/03/02 07:05:06;;;;;;;42.03;18.08;;;;;;;5.15;69.51;102644.03;5017504;28;20121;-40
2023/03/02 07:07:31;;;;;;;42.95;18.33;;;;;;;4.81;69.33;102644.47;5021220;28;20326;-42
2023/03/02 07:09:56;;;;;;;42.70;18.25;;;;;;;5.69;68.02;102647.47;5020497;28;20033;-39
2023/03/02 07:12:22;;;;;;;42.17;18.42;;;;;;;5.63;67.61;102652.25;5016424;28;20038;-41
2023/03/02 07:14:47;;;;;;;38.83;18.88;;;;;;;6.48;65.54;102646.16;5020617;28;20039;-40
2023/03/02 07:17:12;;;;;;;40.00;18.35;;;;;;;6.59;64.92;102650.25;5021557;28;20029;-40
2023/03/02 07:19:38;;;;;;;38.45;18.40;;;;;;;6.59;63.49;102645.09;5025595;28;20033;-42
2023/03/02 07:22:04;;;;;;;42.00;18.67;;;;;;;6.13;63.88;102646.69;5017459;28;20499;-42
2023/03/02 07:24:30;;;;;;;36.25;17.83;;;;;;;5.95;64.28;102649.09;5021024;28;20033;-39
2023/03/02 07:26:55;;;;;;;41.95;18.95;;;;;;;5.22;65.74;102654.88;5020987;28;20120;-40
2023/03/02 07:29:21;;;;;;;38.50;18.58;;;;;;;5.44;66.50;102648.44;5016906;28;20520;-39
2023/03/02 07:31:47;;;;;;;36.45;17.42;;;;;;;5.42;66.79;102655.22;5020239;28;20470;-43
2023/03/02 07:34:14;;;;;;;41.83;18.55;;;;;;;4.88;67.70;102646.63;5017203;28;20034;-41
2023/03/02 07:36:39;;;;;;;39.80;18.10;;;;;;;5.01;67.98;102656.06;5021627;28;20811;-45
2023/03/02 07:39:04;;;;;;;40.30;18.65;;;;;;;5.13;68.60;102651.69;5019126;28;20080;-39
2023/03/02 07:41:29;;;;;;;42.38;18.02;;;;;;;5.12;68.61;102656.78;5021617;28;20036;-40
2023/03/02 07:43:55;;;;;;;41.70;18.10;;;;;;;5.37;67.46;102651.47;5025940;28;20038;-39
2023/03/02 07:46:20;;;;;;;40.75;18.15;;;;;;;5.51;67.25;102655.78;5009765;28;20033;-40
2023/03/02 07:48:46;;;;;;;38.72;17.65;;;;;;;4.83;68.66;102649.72;5032819;28;20084;-40
2023/03/02 07:51:11;;;;;;;40.67;17.08;;;;;;;5.40;67.62;102655.13;5030052;28;20049;-40
2023/03/02 07:53:36;;;;;;;41.35;17.98;;;;;;;5.03;68.47;102657.06;5025785;28;20036;-39
2023/03/02 07:56:10;;;;;;;40.78;17.45;;;;;;;4.98;68.16;102653.31;5020033;28;20069;-40
2023/03/02 07:58:35;;;;;;;36.80;16.27;;;;;;;5.31;67.98;102650.25;5008958;28;20049;-39
2023/03/02 08:01:01;;;;;;;38.20;17.00;;;;;;;5.63;67.38;102659.13;5001964;28;20091;-40
2023/03/02 08:03:26;;;;;;;38.22;16.50;;;;;;;5.85;67.08;102653.59;5023735;28;20500;-39
2023/03/02 08:05:51;;;;;;;38.90;17.40;;;;;;;5.62;66.97;102660.81;5023763;28;20037;-39
2023/03/02 08:08:17;;;;;;;40.30;17.00;;;;;;;5.90;66.00;102657.38;5005673;28;20034;-39
2023/03/02 08:10:42;;;;;;;38.15;17.17;;;;;;;6.06;66.45;102652.31;5022860;28;20045;-39
2023/03/02 08:13:07;;;;;;;38.00;16.77;;;;;;;6.04;65.81;102649.63;5019965;28;20037;-39
2023/03/02 08:15:32;;;;;;;35.95;16.77;;;;;;;5.69;66.49;102646.56;5023808;28;20603;-41
2023/03/02 08:17:58;;;;;;;36.70;16.42;;;;;;;6.13;66.01;102640.63;5027195;28;20403;-40
2023/03/02 08:20:23;;;;;;;36.95;16.98;;;;;;;6.00;65.53;102644.19;5027339;28;20249;-39
2023/03/02 08:22:50;;;;;;;34.60;16.20;;;;;;;5.98;65.65;102645.78;5018532;28;20041;-39
2023/03/02 08:25:16;;;;;;;35.58;16.92;;;;;;;6.07;65.11;102655.00;5019222;28;20519;-39
2023/03/02 08:27:43;;;;;;;35.75;16.42;;;;;;;5.90;65.66;102647.03;5024099;28;20034;-39
2023/03/02 08:30:09;;;;;;;38.47;17.02;;;;;;;5.90;65.51;102647.94;5019470;28;20108;-39
2023/03/02 08:32:35;;;;;;;33.85;16.48;;;;;;;5.88;65.13;102644.34;5023217;28;20083;-40
2023/03/02 08:35:00;;;;;;;35.50;16.42;;;;;;;6.11;65.19;102640.53;5005984;28;20029;-41
2023/03/02 08:37:25;;;;;;;34.15;16.00;;;;;;;5.81;64.62;102649.00;5029743;28;20064;-39
2023/03/02 08:39:51;;;;;;;34.65;16.52;;;;;;;6.04;65.33;102643.53;5031650;28;20033;-40
2023/03/02 08:42:16;;;;;;;35.67;16.38;;;;;;;5.95;65.10;102643.91;5027195;28;20113;-39
2023/03/02 08:44:42;;;;;;;35.92;16.15;;;;;;;6.35;64.22;102644.56;5031107;28;20072;-40
2023/03/02 08:47:07;;;;;;;33.97;17.05;;;;;;;6.42;63.36;102633.75;5027425;28;20549;-37
2023/03/02 08:49:33;;;;;;;35.92;16.80;;;;;;;6.32;63.81;102640.91;5024933;28;20034;-39
2023/03/02 08:51:59;;;;;;;32.60;16.10;;;;;;;6.81;62.35;102635.16;5019762;28;20029;-41
2023/03/02 08:54:25;;;;;;;33.60;16.38;;;;;;;6.81;62.22;102642.03;5023655;28;20091;-40
2023/03/02 08:56:51;;;;;;;30.73;15.48;;;;;;;7.00;61.14;102642.28;5023700;28;20025;-40
2023/03/02 08:59:17;;;;;;;32.53;16.42;;;;;;;6.50;61.08;102635.09;5021098;28;20411;-38
2023/03/02 09:01:42;;;;;;;33.88;15.95;;;;;;;6.61;61.63;102629.63;5026514;28;20041;-40
2023/03/02 09:04:09;;;;;;;33.38;16.05;;;;;;;7.12;59.94;102631.69;5022717;28;20030;-40
2023/03/02 09:06:37;;;;;;;32.17;16.17;;;;;;;7.32;59.27;102625.84;5031978;28;20030;-40
2023/03/02 09:09:03;;;;;;;33.28;16.38;;;;;;;7.06;59.32;102620.97;5028292;28;20578;-40
2023/03/02 09:11:29;;;;;;;30.70;15.40;;;;;;;7.08;58.73;102617.63;5029184;28;20103;-40
2023/03/02 09:13:55;;;;;;;32.33;15.80;;;;;;;7.12;57.81;102614.41;5026807;28;20495;-40
2023/03/02 09:16:20;;;;;;;34.58;15.57;;;;;;;7.19;57.65;102626.91;5023135;28;21930;-40
2023/03/02 09:18:46;;;;;;;30.98;15.45;;;;;;;7.14;57.08;102623.16;5025404;28;20076;-41
2023/03/02 09:21:12;;;;;;;31.85;14.73;;;;;;;7.38;55.99;102622.72;5022592;28;20033;-42
2023/03/02 09:23:38;;;;;;;34.08;15.70;;;;;;;7.27;54.95;102615.25;5025441;28;20495;-41
2023/03/02 09:26:04;;;;;;;30.50;14.90;;;;;;;7.03;56.59;102624.28;5004170;28;20029;-39
2023/03/02 09:28:30;;;;;;;34.22;15.75;;;;;;;7.17;55.73;102631.13;5025338;28;20064;-42
2023/03/02 09:30:58;;;;;;;30.65;14.60;;;;;;;7.28;55.38;102621.31;5025104;28;20466;-40
2023/03/02 09:33:24;;;;;;;30.58;14.52;;;;;;;7.86;54.79;102632.22;5002211;28;20033;-40
2023/03/02 09:35:50;;;;;;;29.75;14.52;;;;;;;7.61;54.64;102625.75;5023159;28;20034;-40
2023/03/02 09:38:17;;;;;;;28.73;14.68;;;;;;;7.49;55.28;102619.00;5019513;28;20518;-39
2023/03/02 09:41:21;;;;;;;28.40;14.73;;;;;;;7.97;53.10;102629.38;5017324;28;20026;-40
2023/03/02 09:44:13;;;;;;;29.10;14.68;;;;;;;7.69;54.58;102626.13;5001730;28;20451;-42
2023/03/02 09:47:04;;;;;;;29.27;13.93;;;;;;;7.52;54.15;102627.84;5026309;28;20395;-40
2023/03/02 09:50:17;;;;;;;28.73;14.70;;;;;;;7.43;56.11;102626.47;5020853;28;20045;-38
2023/03/02 09:53:02;;;;;;;27.08;12.80;;;;;;;7.43;56.61;102629.94;5017566;28;20405;-39
2023/03/02 09:55:33;;;;;;;29.13;14.40;;;;;;;7.69;56.49;102631.31;5024326;28;20030;-40
2023/03/02 09:58:01;;;;;;;30.33;14.35;;;;;;;7.63;56.81;102628.41;5024317;28;20026;-38
2023/03/02 10:00:34;;;;;;;27.08;14.02;;;;;;;7.45;56.86;102625.72;5027482;28;20029;-38
2023/03/02 10:03:17;;;;;;;26.50;13.25;;;;;;;7.60;57.89;102623.97;5023523;28;20041;-38
2023/03/02 10:05:53;;;;;;;26.95;13.13;;;;;;;7.75;57.04;102619.56;5023838;28;20440;-38
2023/03/02 10:08:27;;;;;;;26.38;13.00;;;;;;;8.00;55.87;102618.22;5025367;28;20488;-40
2023/03/02 10:11:15;;;;;;;27.77;13.38;;;;;;;7.57;57.69;102616.00;5020681;28;20045;-38
2023/03/02 10:13:54;;;;;;;25.55;12.88;;;;;;;7.98;57.44;102620.78;5021705;28;20080;-38
2023/03/02 10:16:33;;;;;;;26.90;13.38;;;;;;;7.82;56.59;102622.47;5024932;28;20033;-40
2023/03/02 10:19:11;;;;;;;24.27;13.00;;;;;;;8.21;57.04;102624.53;5020578;28;20037;-40
2023/03/02 10:21:41;;;;;;;25.25;13.27;;;;;;;8.11;57.08;102617.97;5022969;28;20025;-39
2023/03/02 10:24:29;;;;;;;26.35;13.65;;;;;;;8.05;57.96;102614.19;5026092;28;20052;-39
2023/03/02 10:27:00;;;;;;;25.50;13.50;;;;;;;8.37;57.07;102614.13;5022895;28;20548;-39
2023/03/02 10:29:43;;;;;;;26.63;13.52;;;;;;;8.19;57.01;102612.28;5025929;28;20037;-38
2023/03/02 10:32:08;;;;;;;28.95;13.80;;;;;;;8.28;57.94;102613.66;5019525;28;20503;-38
2023/03/02 10:34:36;;;;;;;25.92;13.43;;;;;;;8.26;57.31;102619.56;5025183;28;20026;-40
2023/03/02 10:37:02;;;;;;;26.15;13.30;;;;;;;8.18;57.15;102613.97;5020175;28;20058;-36
2023/03/02 10:39:27;;;;;;;26.88;13.73;;;;;;;7.99;57.42;102617.34;5021844;28;20058;-39
2023/03/02 10:42:02;;;;;;;26.88;13.55;;;;;;;8.18;57.47;102610.47;5018068;28;20052;-40
2023/03/02 10:44:32;;;;;;;25.40;13.23;;;;;;;8.37;57.53;102608.03;5022593;28;20037;-38
2023/03/02 10:46:58;;;;;;;27.55;13.82;;;;;;;8.28;57.59;102602.34;5018985;28;20029;-38
2023/03/02 10:49:25;;;;;;;26.52;13.35;;;;;;;8.38;56.83;102604.63;5025036;28;20454;-38
2023/03/02 10:52:05;;;;;;;25.98;14.00;;;;;;;8.48;56.98;102599.94;5018875;28;20038;-39
2023/03/02 10:54:33;;;;;;;25.75;13.57;;;;;;;8.55;56.90;102598.53;5022558;28;20403;-37
2023/03/02 10:57:01;;;;;;;24.30;12.45;;;;;;;8.37;56.40;102605.44;5018589;28;20557;-41
2023/03/02 10:59:42;;;;;;;26.10;13.23;;;;;;;8.65;56.31;102605.09;5023080;28;20041;-40
2023/03/02 11:02:15;;;;;;;29.02;14.20;;;;;;;8.51;56.09;102602.72;5022734;28;20036;-39
2023/03/02 11:04:41;;;;;;;27.30;13.88;;;;;;;8.34;57.12;102602.69;5022974;28;20116;-43
2023/03/02 11:07:27;;;;;;;27.05;13.80;;;;;;;8.67;56.48;102608.63;5027806;28;20057;-39
2023/03/02 11:09:55;;;;;;;28.95;13.60;;;;;;;8.85;56.17;102591.31;5002888;28;20045;-39
2023/03/02 11:12:22;;;;;;;24.80;12.82;;;;;;;8.88;55.17;102601.88;5026134;28;20029;-39
2023/03/02 11:14:48;;;;;;;27.63;13.77;;;;;;;8.76;56.72;102593.50;5024892;28;20067;-40
2023/03/02 11:17:33;;;;;;;29.08;14.02;;;;;;;8.95;56.28;102585.75;5029992;28;20025;-39
2023/03/02 11:20:00;;;;;;;25.27;13.07;;;;;;;9.03;55.63;102596.50;5025122;28;20381;-38
2023/03/02 11:22:37;;;;;;;28.35;14.10;;;;;;;8.90;55.09;102601.13;5028322;28;20526;-38
2023/03/02 11:25:07;;;;;;;30.02;14.50;;;;;;;8.83;55.80;102587.78;5025220;28;20124;-38